sensor_id;sensor_type;location;lat;lon;timestamp;P1;durP1;ratioP1;P2;durP2;ratioP2
21593;SDS011;10959;51.328;7.322;2023-07-13T00:00:45;2.73;;;0.93;;
21593;SDS011;10959;51.328;7.322;2023-07-13T00:03:12;3.57;;;1.03;;
21593;SDS011;10959;51.328;7.322;2023-07-13T00:05:39;3.93;;;1.10;;
21593;SDS011;10959;51.328;7.322;2023-07-13T00:08:06;3.53;;;1.30;;
21593;SDS011;10959;51.328;7.322;2023-07-13T00:10:33;2.40;;;1.03;;
21593;SDS011;10959;51.328;7.322;2023-07-13T00:12:59;4.27;;;1.30;;
21593;SDS011;10959;51.328;7.322;2023-07-13T00:15:26;4.90;;;1.40;;
21593;SDS011;10959;51.328;7.322;2023-07-13T00:17:56;2.47;;;1.10;;
21593;SDS011;10959;51.328;7.322;2023-07-13T00:20:23;3.77;;;1.30;;
21593;SDS011;10959;51.328;7.322;2023-07-13T00:22:50;3.17;;;1.20;;
21593;SDS011;10959;51.328;7.322;2023-07-13T00:25:18;2.40;;;1.20;;
21593;SDS011;10959;51.328;7.322;2023-07-13T00:27:46;2.80;;;0.93;;
21593;SDS011;10959;51.328;7.322;2023-07-13T00:30:14;5.80;;;1.30;;
21593;SDS011;10959;51.328;7.322;2023-07-13T00:32:41;2.97;;;1.10;;
21593;SDS011;10959;51.328;7.322;2023-07-13T00:35:09;1.83;;;1.00;;
21593;SDS011;10959;51.328;7.322;2023-07-13T00:37:36;5.43;;;1.30;;
21593;SDS011;10959;51.328;7.322;2023-07-13T00:40:03;2.80;;;1.07;;
21593;SDS011;10959;51.328;7.322;2023-07-13T00:42:30;4.23;;;1.20;;
21593;SDS011;10959;51.328;7.322;2023-07-13T00:45:01;2.50;;;1.20;;
21593;SDS011;10959;51.328;7.322;2023-07-13T00:47:29;3.17;;;1.10;;
21593;SDS011;10959;51.328;7.322;2023-07-13T00:49:55;3.67;;;1.20;;
21593;SDS011;10959;51.328;7.322;2023-07-13T00:52:23;2.87;;;0.90;;
21593;SDS011;10959;51.328;7.322;2023-07-13T00:54:50;3.17;;;1.20;;
21593;SDS011;10959;51.328;7.322;2023-07-13T00:57:17;2.83;;;1.20;;
21593;SDS011;10959;51.328;7.322;2023-07-13T00:59:47;3.47;;;1.40;;
21593;SDS011;10959;51.328;7.322;2023-07-13T01:02:16;4.23;;;1.50;;
21593;SDS011;10959;51.328;7.322;2023-07-13T01:04:43;3.97;;;1.40;;
21593;SDS011;10959;51.328;7.322;2023-07-13T01:07:10;2.07;;;1.10;;
21593;SDS011;10959;51.328;7.322;2023-07-13T01:09:39;3.93;;;1.30;;
21593;SDS011;10959;51.328;7.322;2023-07-13T01:12:06;3.83;;;1.17;;
21593;SDS011;10959;51.328;7.322;2023-07-13T01:14:33;6.07;;;1.20;;
21593;SDS011;10959;51.328;7.322;2023-07-13T01:16:59;3.57;;;1.20;;
21593;SDS011;10959;51.328;7.322;2023-07-13T01:19:29;3.50;;;1.00;;
21593;SDS011;10959;51.328;7.322;2023-07-13T01:22:03;2.47;;;1.20;;
21593;SDS011;10959;51.328;7.322;2023-07-13T01:24:33;3.07;;;1.37;;
21593;SDS011;10959;51.328;7.322;2023-07-13T01:27:01;3.60;;;1.10;;
21593;SDS011;10959;51.328;7.322;2023-07-13T01:29:28;3.07;;;1.20;;
21593;SDS011;10959;51.328;7.322;2023-07-13T01:31:56;2.67;;;1.03;;
21593;SDS011;10959;51.328;7.322;2023-07-13T01:34:22;2.37;;;1.20;;
21593;SDS011;10959;51.328;7.322;2023-07-13T01:36:48;4.57;;;1.30;;
21593;SDS011;10959;51.328;7.322;2023-07-13T01:39:20;4.07;;;1.30;;
21593;SDS011;10959;51.328;7.322;2023-07-13T01:41:46;2.60;;;1.20;;
21593;SDS011;10959;51.328;7.322;2023-07-13T01:44:13;1.80;;;1.10;;
21593;SDS011;10959;51.328;7.322;2023-07-13T01:46:39;2.93;;;1.23;;
21593;SDS011;10959;51.328;7.322;2023-07-13T01:49:06;3.50;;;1.00;;
21593;SDS011;10959;51.328;7.322;2023-07-13T01:51:32;3.70;;;1.27;;
21593;SDS011;10959;51.328;7.322;2023-07-13T01:53:58;3.73;;;1.20;;
21593;SDS011;10959;51.328;7.322;2023-07-13T01:56:26;3.27;;;1.20;;
21593;SDS011;10959;51.328;7.322;2023-07-13T01:58:53;3.77;;;1.40;;
21593;SDS011;10959;51.328;7.322;2023-07-13T02:01:19;3.63;;;1.07;;
21593;SDS011;10959;51.328;7.322;2023-07-13T02:03:45;2.97;;;0.97;;
21593;SDS011;10959;51.328;7.322;2023-07-13T02:06:12;3.30;;;1.33;;
21593;SDS011;10959;51.328;7.322;2023-07-13T02:08:39;3.73;;;1.60;;
21593;SDS011;10959;51.328;7.322;2023-07-13T02:11:06;2.73;;;1.60;;
21593;SDS011;10959;51.328;7.322;2023-07-13T02:13:34;2.70;;;1.10;;
21593;SDS011;10959;51.328;7.322;2023-07-13T02:16:00;2.83;;;1.00;;
21593;SDS011;10959;51.328;7.322;2023-07-13T02:18:27;4.07;;;1.20;;
21593;SDS011;10959;51.328;7.322;2023-07-13T02:20:53;3.07;;;1.03;;
21593;SDS011;10959;51.328;7.322;2023-07-13T02:23:20;3.03;;;1.40;;
21593;SDS011;10959;51.328;7.322;2023-07-13T02:25:46;2.17;;;0.90;;
21593;SDS011;10959;51.328;7.322;2023-07-13T02:28:12;3.60;;;1.33;;
21593;SDS011;10959;51.328;7.322;2023-07-13T02:30:40;5.23;;;1.20;;
21593;SDS011;10959;51.328;7.322;2023-07-13T02:33:07;4.47;;;1.30;;
21593;SDS011;10959;51.328;7.322;2023-07-13T02:35:33;4.37;;;1.13;;
21593;SDS011;10959;51.328;7.322;2023-07-13T02:37:59;3.87;;;1.40;;
21593;SDS011;10959;51.328;7.322;2023-07-13T02:40:26;5.43;;;1.10;;
21593;SDS011;10959;51.328;7.322;2023-07-13T02:42:52;3.80;;;1.53;;
21593;SDS011;10959;51.328;7.322;2023-07-13T02:45:19;4.27;;;1.13;;
21593;SDS011;10959;51.328;7.322;2023-07-13T02:47:46;3.13;;;1.40;;
21593;SDS011;10959;51.328;7.322;2023-07-13T02:50:13;2.63;;;1.10;;
21593;SDS011;10959;51.328;7.322;2023-07-13T02:52:39;5.53;;;1.03;;
21593;SDS011;10959;51.328;7.322;2023-07-13T02:55:06;3.90;;;1.60;;
21593;SDS011;10959;51.328;7.322;2023-07-13T02:57:32;3.43;;;1.33;;
21593;SDS011;10959;51.328;7.322;2023-07-13T02:59:59;7.23;;;1.30;;
21593;SDS011;10959;51.328;7.322;2023-07-13T03:02:25;6.17;;;1.10;;
21593;SDS011;10959;51.328;7.322;2023-07-13T03:04:54;2.97;;;0.83;;
21593;SDS011;10959;51.328;7.322;2023-07-13T03:07:21;3.63;;;1.30;;
21593;SDS011;10959;51.328;7.322;2023-07-13T03:09:47;3.57;;;1.20;;
21593;SDS011;10959;51.328;7.322;2023-07-13T03:12:13;2.33;;;0.90;;
21593;SDS011;10959;51.328;7.322;2023-07-13T03:14:40;3.27;;;1.23;;
21593;SDS011;10959;51.328;7.322;2023-07-13T03:17:06;3.13;;;0.97;;
21593;SDS011;10959;51.328;7.322;2023-07-13T03:19:33;3.43;;;1.40;;
21593;SDS011;10959;51.328;7.322;2023-07-13T03:22:00;5.57;;;1.30;;
21593;SDS011;10959;51.328;7.322;2023-07-13T03:24:27;3.90;;;1.00;;
21593;SDS011;10959;51.328;7.322;2023-07-13T03:26:53;5.43;;;1.40;;
21593;SDS011;10959;51.328;7.322;2023-07-13T03:29:20;4.03;;;1.50;;
21593;SDS011;10959;51.328;7.322;2023-07-13T03:31:46;4.63;;;1.30;;
21593;SDS011;10959;51.328;7.322;2023-07-13T03:34:13;4.07;;;1.20;;
21593;SDS011;10959;51.328;7.322;2023-07-13T03:36:39;4.57;;;1.23;;
21593;SDS011;10959;51.328;7.322;2023-07-13T03:39:08;3.10;;;1.30;;
21593;SDS011;10959;51.328;7.322;2023-07-13T03:41:35;3.93;;;0.90;;
21593;SDS011;10959;51.328;7.322;2023-07-13T03:44:02;2.97;;;1.20;;
21593;SDS011;10959;51.328;7.322;2023-07-13T03:46:28;2.70;;;1.10;;
21593;SDS011;10959;51.328;7.322;2023-07-13T03:48:55;5.13;;;1.23;;
21593;SDS011;10959;51.328;7.322;2023-07-13T03:51:21;4.97;;;1.33;;
21593;SDS011;10959;51.328;7.322;2023-07-13T03:53:49;3.07;;;1.20;;
21593;SDS011;10959;51.328;7.322;2023-07-13T03:56:17;6.43;;;1.40;;
21593;SDS011;10959;51.328;7.322;2023-07-13T03:58:45;4.10;;;1.23;;
21593;SDS011;10959;51.328;7.322;2023-07-13T04:01:12;3.00;;;0.90;;
21593;SDS011;10959;51.328;7.322;2023-07-13T04:03:39;3.53;;;1.20;;
21593;SDS011;10959;51.328;7.322;2023-07-13T04:06:06;5.50;;;1.20;;
21593;SDS011;10959;51.328;7.322;2023-07-13T04:08:34;3.97;;;1.33;;
21593;SDS011;10959;51.328;7.322;2023-07-13T04:11:02;4.03;;;1.40;;
21593;SDS011;10959;51.328;7.322;2023-07-13T04:13:31;5.13;;;1.60;;
21593;SDS011;10959;51.328;7.322;2023-07-13T04:15:58;3.50;;;1.10;;
21593;SDS011;10959;51.328;7.322;2023-07-13T04:18:24;6.00;;;1.50;;
21593;SDS011;10959;51.328;7.322;2023-07-13T04:20:51;5.60;;;1.47;;
21593;SDS011;10959;51.328;7.322;2023-07-13T04:23:17;4.17;;;1.40;;
21593;SDS011;10959;51.328;7.322;2023-07-13T04:25:44;3.27;;;1.33;;
21593;SDS011;10959;51.328;7.322;2023-07-13T04:28:11;3.57;;;1.80;;
21593;SDS011;10959;51.328;7.322;2023-07-13T04:30:39;6.47;;;1.70;;
21593;SDS011;10959;51.328;7.322;2023-07-13T04:33:06;2.83;;;1.20;;
21593;SDS011;10959;51.328;7.322;2023-07-13T04:35:33;3.50;;;1.53;;
21593;SDS011;10959;51.328;7.322;2023-07-13T04:38:00;2.97;;;1.40;;
21593;SDS011;10959;51.328;7.322;2023-07-13T04:40:27;3.83;;;1.60;;
21593;SDS011;10959;51.328;7.322;2023-07-13T04:42:54;3.33;;;1.40;;
21593;SDS011;10959;51.328;7.322;2023-07-13T04:45:21;3.13;;;1.30;;
21593;SDS011;10959;51.328;7.322;2023-07-13T04:47:50;3.90;;;1.50;;
21593;SDS011;10959;51.328;7.322;2023-07-13T04:50:17;3.17;;;1.20;;
21593;SDS011;10959;51.328;7.322;2023-07-13T04:52:48;2.53;;;1.30;;
21593;SDS011;10959;51.328;7.322;2023-07-13T04:55:15;3.80;;;1.13;;
21593;SDS011;10959;51.328;7.322;2023-07-13T04:57:41;5.03;;;1.37;;
21593;SDS011;10959;51.328;7.322;2023-07-13T05:00:08;5.37;;;1.47;;
21593;SDS011;10959;51.328;7.322;2023-07-13T05:02:36;4.00;;;1.57;;
21593;SDS011;10959;51.328;7.322;2023-07-13T05:05:06;4.47;;;1.27;;
21593;SDS011;10959;51.328;7.322;2023-07-13T05:07:33;4.47;;;1.40;;
21593;SDS011;10959;51.328;7.322;2023-07-13T05:09:59;4.63;;;1.70;;
21593;SDS011;10959;51.328;7.322;2023-07-13T05:12:26;5.40;;;1.27;;
21593;SDS011;10959;51.328;7.322;2023-07-13T05:14:53;3.70;;;1.40;;
21593;SDS011;10959;51.328;7.322;2023-07-13T05:17:19;3.40;;;1.17;;
21593;SDS011;10959;51.328;7.322;2023-07-13T05:19:45;3.03;;;1.27;;
21593;SDS011;10959;51.328;7.322;2023-07-13T05:22:13;4.07;;;1.23;;
21593;SDS011;10959;51.328;7.322;2023-07-13T05:24:40;4.07;;;1.60;;
21593;SDS011;10959;51.328;7.322;2023-07-13T05:27:06;8.10;;;1.50;;
21593;SDS011;10959;51.328;7.322;2023-07-13T05:29:32;4.50;;;1.43;;
21593;SDS011;10959;51.328;7.322;2023-07-13T05:31:59;3.23;;;1.50;;
21593;SDS011;10959;51.328;7.322;2023-07-13T05:34:25;6.07;;;1.57;;
21593;SDS011;10959;51.328;7.322;2023-07-13T05:36:52;3.17;;;1.63;;
21593;SDS011;10959;51.328;7.322;2023-07-13T05:39:20;5.37;;;1.93;;
21593;SDS011;10959;51.328;7.322;2023-07-13T05:41:46;7.53;;;1.90;;
21593;SDS011;10959;51.328;7.322;2023-07-13T05:44:13;3.50;;;1.30;;
21593;SDS011;10959;51.328;7.322;2023-07-13T05:46:39;3.37;;;1.60;;
21593;SDS011;10959;51.328;7.322;2023-07-13T05:49:06;6.70;;;1.80;;
21593;SDS011;10959;51.328;7.322;2023-07-13T05:51:32;3.27;;;1.93;;
21593;SDS011;10959;51.328;7.322;2023-07-13T05:54:00;4.23;;;2.07;;
21593;SDS011;10959;51.328;7.322;2023-07-13T05:56:42;6.07;;;2.20;;
21593;SDS011;10959;51.328;7.322;2023-07-13T05:59:08;5.57;;;2.10;;
21593;SDS011;10959;51.328;7.322;2023-07-13T06:01:34;6.10;;;1.83;;
21593;SDS011;10959;51.328;7.322;2023-07-13T06:04:01;6.53;;;1.80;;
21593;SDS011;10959;51.328;7.322;2023-07-13T06:06:28;5.47;;;1.90;;
21593;SDS011;10959;51.328;7.322;2023-07-13T06:08:54;4.93;;;2.13;;
21593;SDS011;10959;51.328;7.322;2023-07-13T06:11:21;4.10;;;1.90;;
21593;SDS011;10959;51.328;7.322;2023-07-13T06:13:50;4.57;;;1.70;;
21593;SDS011;10959;51.328;7.322;2023-07-13T06:16:17;6.97;;;2.33;;
21593;SDS011;10959;51.328;7.322;2023-07-13T06:18:44;8.33;;;2.63;;
21593;SDS011;10959;51.328;7.322;2023-07-13T06:21:11;7.03;;;2.03;;
21593;SDS011;10959;51.328;7.322;2023-07-13T06:23:40;6.00;;;2.20;;
21593;SDS011;10959;51.328;7.322;2023-07-13T06:26:07;8.23;;;2.47;;
21593;SDS011;10959;51.328;7.322;2023-07-13T06:28:34;5.90;;;2.73;;
21593;SDS011;10959;51.328;7.322;2023-07-13T06:31:04;6.43;;;2.50;;
21593;SDS011;10959;51.328;7.322;2023-07-13T06:33:32;4.63;;;2.17;;
21593;SDS011;10959;51.328;7.322;2023-07-13T06:35:58;7.27;;;2.40;;
21593;SDS011;10959;51.328;7.322;2023-07-13T06:38:25;4.07;;;2.20;;
21593;SDS011;10959;51.328;7.322;2023-07-13T06:40:51;6.13;;;2.07;;
21593;SDS011;10959;51.328;7.322;2023-07-13T06:43:18;5.83;;;1.90;;
21593;SDS011;10959;51.328;7.322;2023-07-13T06:45:45;6.00;;;2.30;;
21593;SDS011;10959;51.328;7.322;2023-07-13T06:48:16;5.77;;;2.07;;
21593;SDS011;10959;51.328;7.322;2023-07-13T06:50:44;7.67;;;2.20;;
21593;SDS011;10959;51.328;7.322;2023-07-13T06:53:11;6.37;;;1.87;;
21593;SDS011;10959;51.328;7.322;2023-07-13T06:55:38;5.37;;;2.17;;
21593;SDS011;10959;51.328;7.322;2023-07-13T06:58:05;6.30;;;2.00;;
21593;SDS011;10959;51.328;7.322;2023-07-13T07:00:32;8.40;;;2.40;;
21593;SDS011;10959;51.328;7.322;2023-07-13T07:02:58;5.77;;;2.00;;
21593;SDS011;10959;51.328;7.322;2023-07-13T07:08:48;6.30;;;2.00;;
21593;SDS011;10959;51.328;7.322;2023-07-13T07:11:15;8.07;;;2.20;;
21593;SDS011;10959;51.328;7.322;2023-07-13T07:13:43;6.23;;;2.00;;
21593;SDS011;10959;51.328;7.322;2023-07-13T07:16:09;4.77;;;2.20;;
21593;SDS011;10959;51.328;7.322;2023-07-13T07:18:36;5.10;;;2.10;;
21593;SDS011;10959;51.328;7.322;2023-07-13T07:21:03;4.63;;;2.00;;
21593;SDS011;10959;51.328;7.322;2023-07-13T07:23:30;4.77;;;1.87;;
21593;SDS011;10959;51.328;7.322;2023-07-13T07:25:57;3.50;;;1.77;;
21593;SDS011;10959;51.328;7.322;2023-07-13T07:28:24;7.43;;;2.50;;
21593;SDS011;10959;51.328;7.322;2023-07-13T07:30:54;5.10;;;2.03;;
21593;SDS011;10959;51.328;7.322;2023-07-13T07:33:22;6.50;;;2.20;;
21593;SDS011;10959;51.328;7.322;2023-07-13T07:35:48;4.50;;;2.13;;
21593;SDS011;10959;51.328;7.322;2023-07-13T07:38:15;8.10;;;2.30;;
21593;SDS011;10959;51.328;7.322;2023-07-13T07:40:42;6.97;;;2.15;;
21593;SDS011;10959;51.328;7.322;2023-07-13T07:43:11;4.57;;;2.07;;
21593;SDS011;10959;51.328;7.322;2023-07-13T07:45:38;5.05;;;2.25;;
21593;SDS011;10959;51.328;7.322;2023-07-13T07:48:06;6.40;;;2.08;;
21593;SDS011;10959;51.328;7.322;2023-07-13T07:50:34;5.00;;;1.80;;
21593;SDS011;10959;51.328;7.322;2023-07-13T07:53:01;6.40;;;1.92;;
21593;SDS011;10959;51.328;7.322;2023-07-13T07:55:30;5.75;;;2.28;;
21593;SDS011;10959;51.328;7.322;2023-07-13T07:57:59;4.80;;;1.90;;
21593;SDS011;10959;51.328;7.322;2023-07-13T08:00:27;5.85;;;2.05;;
21593;SDS011;10959;51.328;7.322;2023-07-13T08:02:55;5.72;;;1.80;;
21593;SDS011;10959;51.328;7.322;2023-07-13T08:05:22;4.03;;;1.58;;
21593;SDS011;10959;51.328;7.322;2023-07-13T08:07:48;5.38;;;1.77;;
21593;SDS011;10959;51.328;7.322;2023-07-13T08:10:15;7.60;;;2.10;;
21593;SDS011;10959;51.328;7.322;2023-07-13T08:12:41;7.30;;;2.53;;
21593;SDS011;10959;51.328;7.322;2023-07-13T08:15:09;5.55;;;2.08;;
21593;SDS011;10959;51.328;7.322;2023-07-13T08:17:39;5.03;;;2.03;;
21593;SDS011;10959;51.328;7.322;2023-07-13T08:20:06;6.85;;;2.45;;
21593;SDS011;10959;51.328;7.322;2023-07-13T08:22:34;5.00;;;2.15;;
21593;SDS011;10959;51.328;7.322;2023-07-13T08:25:01;6.20;;;2.40;;
21593;SDS011;10959;51.328;7.322;2023-07-13T08:27:28;4.22;;;1.88;;
21593;SDS011;10959;51.328;7.322;2023-07-13T08:29:55;5.03;;;1.85;;
21593;SDS011;10959;51.328;7.322;2023-07-13T08:32:22;3.45;;;1.88;;
21593;SDS011;10959;51.328;7.322;2023-07-13T08:34:50;4.47;;;1.90;;
21593;SDS011;10959;51.328;7.322;2023-07-13T08:37:18;4.85;;;2.17;;
21593;SDS011;10959;51.328;7.322;2023-07-13T08:39:45;4.68;;;2.03;;
21593;SDS011;10959;51.328;7.322;2023-07-13T08:42:14;4.22;;;1.63;;
21593;SDS011;10959;51.328;7.322;2023-07-13T08:44:54;5.57;;;1.88;;
21593;SDS011;10959;51.328;7.322;2023-07-13T08:47:28;6.07;;;2.22;;
21593;SDS011;10959;51.328;7.322;2023-07-13T08:49:58;6.50;;;1.80;;
21593;SDS011;10959;51.328;7.322;2023-07-13T08:52:28;4.75;;;1.77;;
21593;SDS011;10959;51.328;7.322;2023-07-13T08:54:59;5.35;;;1.80;;
21593;SDS011;10959;51.328;7.322;2023-07-13T08:57:33;4.57;;;2.00;;
21593;SDS011;10959;51.328;7.322;2023-07-13T09:00:00;5.75;;;2.13;;
